sensor_id;sensor_type;location;lat;lon;timestamp;P1;durP1;ratioP1;P2;durP2;ratioP2
78004;SDS011;67209;51.698;-0.292;2023-04-28T00:00:25;37.63;;;15.73;;
78004;SDS011;67209;51.698;-0.292;2023-04-28T00:02:51;36.47;;;14.00;;
78004;SDS011;67209;51.698;-0.292;2023-04-28T00:05:18;38.60;;;15.10;;
78004;SDS011;67209;51.698;-0.292;2023-04-28T00:07:44;37.33;;;13.90;;
78004;SDS011;67209;51.698;-0.292;2023-04-28T00:10:10;38.78;;;15.23;;
78004;SDS011;67209;51.698;-0.292;2023-04-28T00:12:36;39.15;;;14.57;;
78004;SDS011;67209;51.698;-0.292;2023-04-28T00:15:02;35.38;;;13.10;;
78004;SDS011;67209;51.698;-0.292;2023-04-28T00:17:28;38.75;;;15.77;;
78004;SDS011;67209;51.698;-0.292;2023-04-28T00:19:54;39.20;;;15.00;;
78004;SDS011;67209;51.698;-0.292;2023-04-28T00:22:20;37.78;;;15.05;;
78004;SDS011;67209;51.698;-0.292;2023-04-28T00:24:46;36.67;;;14.55;;
78004;SDS011;67209;51.698;-0.292;2023-04-28T00:27:12;39.80;;;14.43;;
78004;SDS011;67209;51.698;-0.292;2023-04-28T00:29:38;38.35;;;15.50;;
78004;SDS011;67209;51.698;-0.292;2023-04-28T00:32:04;41.35;;;15.02;;
78004;SDS011;67209;51.698;-0.292;2023-04-28T00:34:33;42.78;;;14.13;;
78004;SDS011;67209;51.698;-0.292;2023-04-28T00:37:02;42.85;;;15.57;;
78004;SDS011;67209;51.698;-0.292;2023-04-28T00:39:28;34.35;;;13.70;;
78004;SDS011;67209;51.698;-0.292;2023-04-28T00:41:55;36.78;;;14.13;;
78004;SDS011;67209;51.698;-0.292;2023-04-28T00:44:21;34.70;;;13.30;;
78004;SDS011;67209;51.698;-0.292;2023-04-28T00:46:47;39.03;;;13.57;;
78004;SDS011;67209;51.698;-0.292;2023-04-28T00:49:14;34.70;;;13.57;;
78004;SDS011;67209;51.698;-0.292;2023-04-28T00:51:40;33.40;;;14.15;;
78004;SDS011;67209;51.698;-0.292;2023-04-28T00:54:06;32.90;;;12.18;;
78004;SDS011;67209;51.698;-0.292;2023-04-28T00:56:32;36.17;;;13.52;;
78004;SDS011;67209;51.698;-0.292;2023-04-28T00:58:58;31.90;;;12.82;;
78004;SDS011;67209;51.698;-0.292;2023-04-28T01:01:24;33.60;;;11.75;;
78004;SDS011;67209;51.698;-0.292;2023-04-28T01:03:51;33.22;;;11.77;;
78004;SDS011;67209;51.698;-0.292;2023-04-28T01:06:17;30.42;;;12.10;;
78004;SDS011;67209;51.698;-0.292;2023-04-28T01:08:46;34.28;;;13.32;;
78004;SDS011;67209;51.698;-0.292;2023-04-28T01:11:12;31.08;;;12.32;;
78004;SDS011;67209;51.698;-0.292;2023-04-28T01:13:38;30.85;;;11.45;;
78004;SDS011;67209;51.698;-0.292;2023-04-28T01:16:05;31.90;;;11.27;;
78004;SDS011;67209;51.698;-0.292;2023-04-28T01:18:31;32.13;;;11.40;;
78004;SDS011;67209;51.698;-0.292;2023-04-28T01:20:58;36.17;;;11.20;;
78004;SDS011;67209;51.698;-0.292;2023-04-28T01:23:24;29.83;;;11.75;;
78004;SDS011;67209;51.698;-0.292;2023-04-28T01:25:51;34.20;;;11.65;;
78004;SDS011;67209;51.698;-0.292;2023-04-28T01:28:17;29.95;;;10.48;;
78004;SDS011;67209;51.698;-0.292;2023-04-28T01:30:43;32.45;;;10.65;;
78004;SDS011;67209;51.698;-0.292;2023-04-28T01:33:09;29.17;;;11.60;;
78004;SDS011;67209;51.698;-0.292;2023-04-28T01:35:35;31.75;;;11.57;;
78004;SDS011;67209;51.698;-0.292;2023-04-28T01:38:01;32.58;;;11.45;;
78004;SDS011;67209;51.698;-0.292;2023-04-28T01:40:30;36.65;;;11.45;;
78004;SDS011;67209;51.698;-0.292;2023-04-28T01:42:56;37.42;;;11.15;;
78004;SDS011;67209;51.698;-0.292;2023-04-28T01:45:22;35.35;;;10.05;;
78004;SDS011;67209;51.698;-0.292;2023-04-28T01:47:48;39.33;;;10.90;;
78004;SDS011;67209;51.698;-0.292;2023-04-28T01:50:14;42.38;;;11.43;;
78004;SDS011;67209;51.698;-0.292;2023-04-28T01:52:40;31.98;;;10.50;;
78004;SDS011;67209;51.698;-0.292;2023-04-28T01:55:06;34.67;;;10.45;;
78004;SDS011;67209;51.698;-0.292;2023-04-28T01:57:32;32.63;;;10.82;;
78004;SDS011;67209;51.698;-0.292;2023-04-28T02:00:00;23.85;;;8.50;;
78004;SDS011;67209;51.698;-0.292;2023-04-28T02:02:26;42.58;;;10.65;;
78004;SDS011;67209;51.698;-0.292;2023-04-28T02:04:52;37.58;;;11.93;;
78004;SDS011;67209;51.698;-0.292;2023-04-28T02:07:18;34.15;;;9.70;;
78004;SDS011;67209;51.698;-0.292;2023-04-28T02:09:44;32.78;;;9.38;;
78004;SDS011;67209;51.698;-0.292;2023-04-28T02:12:10;39.53;;;10.57;;
78004;SDS011;67209;51.698;-0.292;2023-04-28T02:14:36;34.22;;;9.43;;
78004;SDS011;67209;51.698;-0.292;2023-04-28T02:17:02;38.90;;;9.98;;
78004;SDS011;67209;51.698;-0.292;2023-04-28T02:19:29;35.67;;;9.00;;
78004;SDS011;67209;51.698;-0.292;2023-04-28T02:21:55;36.05;;;10.02;;
78004;SDS011;67209;51.698;-0.292;2023-04-28T02:24:21;24.55;;;8.20;;
78004;SDS011;67209;51.698;-0.292;2023-04-28T02:26:47;43.40;;;9.18;;
78004;SDS011;67209;51.698;-0.292;2023-04-28T02:29:13;34.28;;;8.65;;
78004;SDS011;67209;51.698;-0.292;2023-04-28T02:31:39;30.73;;;9.15;;
78004;SDS011;67209;51.698;-0.292;2023-04-28T02:34:05;36.97;;;10.35;;
78004;SDS011;67209;51.698;-0.292;2023-04-28T02:36:31;32.17;;;8.68;;
78004;SDS011;67209;51.698;-0.292;2023-04-28T02:38:57;30.73;;;9.10;;
78004;SDS011;67209;51.698;-0.292;2023-04-28T02:41:23;31.50;;;8.25;;
78004;SDS011;67209;51.698;-0.292;2023-04-28T02:43:50;32.60;;;8.32;;
78004;SDS011;67209;51.698;-0.292;2023-04-28T02:46:16;35.08;;;8.98;;
78004;SDS011;67209;51.698;-0.292;2023-04-28T02:48:42;29.73;;;9.20;;
78004;SDS011;67209;51.698;-0.292;2023-04-28T02:51:08;27.90;;;8.30;;
78004;SDS011;67209;51.698;-0.292;2023-04-28T02:53:34;29.10;;;9.20;;
78004;SDS011;67209;51.698;-0.292;2023-04-28T02:56:00;29.83;;;8.23;;
78004;SDS011;67209;51.698;-0.292;2023-04-28T02:58:28;23.60;;;6.97;;
78004;SDS011;67209;51.698;-0.292;2023-04-28T03:00:54;28.05;;;8.38;;
78004;SDS011;67209;51.698;-0.292;2023-04-28T03:03:20;30.52;;;8.50;;
78004;SDS011;67209;51.698;-0.292;2023-04-28T03:05:46;30.00;;;8.25;;
78004;SDS011;67209;51.698;-0.292;2023-04-28T03:08:12;24.23;;;8.05;;
78004;SDS011;67209;51.698;-0.292;2023-04-28T03:10:38;31.10;;;8.13;;
78004;SDS011;67209;51.698;-0.292;2023-04-28T03:13:04;33.80;;;8.00;;
78004;SDS011;67209;51.698;-0.292;2023-04-28T03:15:30;20.75;;;7.05;;
78004;SDS011;67209;51.698;-0.292;2023-04-28T03:17:56;22.63;;;7.07;;
78004;SDS011;67209;51.698;-0.292;2023-04-28T03:20:22;23.55;;;7.18;;
78004;SDS011;67209;51.698;-0.292;2023-04-28T03:22:48;20.15;;;7.07;;
78004;SDS011;67209;51.698;-0.292;2023-04-28T03:25:14;18.92;;;6.38;;
78004;SDS011;67209;51.698;-0.292;2023-04-28T03:27:40;18.40;;;6.13;;
78004;SDS011;67209;51.698;-0.292;2023-04-28T03:30:06;17.42;;;6.10;;
78004;SDS011;67209;51.698;-0.292;2023-04-28T03:32:32;16.88;;;5.22;;
78004;SDS011;67209;51.698;-0.292;2023-04-28T03:34:58;15.25;;;5.53;;
78004;SDS011;67209;51.698;-0.292;2023-04-28T03:37:24;12.32;;;5.07;;
78004;SDS011;67209;51.698;-0.292;2023-04-28T03:39:51;10.43;;;4.80;;
78004;SDS011;67209;51.698;-0.292;2023-04-28T03:42:17;13.73;;;4.60;;
78004;SDS011;67209;51.698;-0.292;2023-04-28T03:44:43;13.88;;;4.78;;
78004;SDS011;67209;51.698;-0.292;2023-04-28T03:47:09;13.05;;;4.55;;
78004;SDS011;67209;51.698;-0.292;2023-04-28T03:49:35;13.02;;;4.72;;
78004;SDS011;67209;51.698;-0.292;2023-04-28T03:52:01;9.30;;;4.50;;
78004;SDS011;67209;51.698;-0.292;2023-04-28T03:54:28;13.50;;;4.30;;
78004;SDS011;67209;51.698;-0.292;2023-04-28T03:56:54;10.95;;;3.88;;
78004;SDS011;67209;51.698;-0.292;2023-04-28T03:59:21;10.25;;;3.60;;
78004;SDS011;67209;51.698;-0.292;2023-04-28T04:01:47;8.00;;;3.22;;
78004;SDS011;67209;51.698;-0.292;2023-04-28T04:04:13;6.80;;;2.83;;
78004;SDS011;67209;51.698;-0.292;2023-04-28T04:06:39;11.32;;;4.13;;
78004;SDS011;67209;51.698;-0.292;2023-04-28T04:09:05;12.27;;;3.67;;
78004;SDS011;67209;51.698;-0.292;2023-04-28T04:11:31;6.15;;;3.30;;
78004;SDS011;67209;51.698;-0.292;2023-04-28T04:13:57;8.45;;;3.15;;
78004;SDS011;67209;51.698;-0.292;2023-04-28T04:16:23;9.27;;;3.70;;
78004;SDS011;67209;51.698;-0.292;2023-04-28T04:18:49;6.78;;;3.08;;
78004;SDS011;67209;51.698;-0.292;2023-04-28T04:21:15;8.52;;;3.28;;
78004;SDS011;67209;51.698;-0.292;2023-04-28T04:23:41;6.53;;;3.03;;
78004;SDS011;67209;51.698;-0.292;2023-04-28T04:26:07;6.05;;;2.97;;
78004;SDS011;67209;51.698;-0.292;2023-04-28T04:28:33;5.80;;;2.70;;
78004;SDS011;67209;51.698;-0.292;2023-04-28T04:30:59;8.18;;;3.38;;
78004;SDS011;67209;51.698;-0.292;2023-04-28T04:33:26;8.82;;;3.20;;
78004;SDS011;67209;51.698;-0.292;2023-04-28T04:35:53;7.55;;;3.15;;
78004;SDS011;67209;51.698;-0.292;2023-04-28T04:38:19;6.63;;;3.35;;
78004;SDS011;67209;51.698;-0.292;2023-04-28T04:40:45;5.95;;;3.22;;
78004;SDS011;67209;51.698;-0.292;2023-04-28T04:43:11;9.73;;;3.08;;
78004;SDS011;67209;51.698;-0.292;2023-04-28T04:45:37;7.70;;;3.33;;
78004;SDS011;67209;51.698;-0.292;2023-04-28T04:48:03;5.95;;;2.92;;
78004;SDS011;67209;51.698;-0.292;2023-04-28T04:50:29;7.43;;;3.33;;
78004;SDS011;67209;51.698;-0.292;2023-04-28T04:52:55;6.80;;;3.13;;
78004;SDS011;67209;51.698;-0.292;2023-04-28T04:55:22;6.40;;;2.75;;
78004;SDS011;67209;51.698;-0.292;2023-04-28T04:57:48;6.30;;;3.08;;
78004;SDS011;67209;51.698;-0.292;2023-04-28T05:00:14;6.03;;;3.13;;
78004;SDS011;67209;51.698;-0.292;2023-04-28T05:02:41;8.27;;;3.55;;
78004;SDS011;67209;51.698;-0.292;2023-04-28T05:05:07;5.93;;;2.80;;
78004;SDS011;67209;51.698;-0.292;2023-04-28T05:07:33;5.50;;;3.03;;
78004;SDS011;67209;51.698;-0.292;2023-04-28T05:09:59;7.05;;;2.80;;
78004;SDS011;67209;51.698;-0.292;2023-04-28T05:12:25;7.55;;;2.75;;
78004;SDS011;67209;51.698;-0.292;2023-04-28T05:14:51;6.50;;;3.13;;
78004;SDS011;67209;51.698;-0.292;2023-04-28T05:17:17;10.25;;;2.88;;
78004;SDS011;67209;51.698;-0.292;2023-04-28T05:19:43;8.43;;;2.95;;
78004;SDS011;67209;51.698;-0.292;2023-04-28T05:22:09;7.25;;;3.13;;
78004;SDS011;67209;51.698;-0.292;2023-04-28T05:24:36;8.63;;;3.08;;
78004;SDS011;67209;51.698;-0.292;2023-04-28T05:27:02;7.82;;;2.97;;
78004;SDS011;67209;51.698;-0.292;2023-04-28T05:29:28;6.75;;;3.58;;
78004;SDS011;67209;51.698;-0.292;2023-04-28T05:31:54;8.18;;;2.90;;
78004;SDS011;67209;51.698;-0.292;2023-04-28T05:34:20;9.38;;;3.35;;
78004;SDS011;67209;51.698;-0.292;2023-04-28T05:36:46;9.88;;;3.65;;
78004;SDS011;67209;51.698;-0.292;2023-04-28T05:39:12;7.55;;;3.20;;
78004;SDS011;67209;51.698;-0.292;2023-04-28T05:41:38;8.23;;;3.25;;
78004;SDS011;67209;51.698;-0.292;2023-04-28T05:44:04;6.82;;;3.05;;
78004;SDS011;67209;51.698;-0.292;2023-04-28T05:46:30;8.23;;;3.13;;
78004;SDS011;67209;51.698;-0.292;2023-04-28T05:48:56;9.50;;;3.45;;
78004;SDS011;67209;51.698;-0.292;2023-04-28T05:51:22;6.75;;;3.47;;
78004;SDS011;67209;51.698;-0.292;2023-04-28T05:53:48;8.55;;;3.38;;
78004;SDS011;67209;51.698;-0.292;2023-04-28T05:56:15;8.77;;;3.22;;
78004;SDS011;67209;51.698;-0.292;2023-04-28T05:58:41;7.88;;;3.40;;
78004;SDS011;67209;51.698;-0.292;2023-04-28T06:01:09;6.03;;;3.08;;
78004;SDS011;67209;51.698;-0.292;2023-04-28T06:03:36;7.40;;;3.33;;
78004;SDS011;67209;51.698;-0.292;2023-04-28T06:06:04;5.68;;;2.80;;
78004;SDS011;67209;51.698;-0.292;2023-04-28T06:08:30;9.82;;;3.17;;
78004;SDS011;67209;51.698;-0.292;2023-04-28T06:10:56;6.75;;;2.90;;
78004;SDS011;67209;51.698;-0.292;2023-04-28T06:13:22;8.25;;;3.50;;
78004;SDS011;67209;51.698;-0.292;2023-04-28T06:15:48;6.88;;;3.08;;
78004;SDS011;67209;51.698;-0.292;2023-04-28T06:18:14;6.53;;;2.88;;
78004;SDS011;67209;51.698;-0.292;2023-04-28T06:20:41;8.32;;;3.70;;
78004;SDS011;67209;51.698;-0.292;2023-04-28T06:23:07;7.32;;;3.05;;
78004;SDS011;67209;51.698;-0.292;2023-04-28T06:25:33;7.30;;;3.70;;
78004;SDS011;67209;51.698;-0.292;2023-04-28T06:28:00;6.93;;;3.22;;
78004;SDS011;67209;51.698;-0.292;2023-04-28T06:30:26;7.18;;;3.30;;
78004;SDS011;67209;51.698;-0.292;2023-04-28T06:32:52;6.03;;;3.17;;
78004;SDS011;67209;51.698;-0.292;2023-04-28T06:35:18;7.70;;;2.80;;
78004;SDS011;67209;51.698;-0.292;2023-04-28T06:37:44;11.43;;;3.90;;
78004;SDS011;67209;51.698;-0.292;2023-04-28T06:40:10;6.65;;;3.33;;
78004;SDS011;67209;51.698;-0.292;2023-04-28T06:42:36;6.32;;;3.20;;
78004;SDS011;67209;51.698;-0.292;2023-04-28T06:45:02;7.18;;;2.92;;
78004;SDS011;67209;51.698;-0.292;2023-04-28T06:47:28;7.25;;;3.58;;
78004;SDS011;67209;51.698;-0.292;2023-04-28T06:49:54;6.30;;;3.08;;
78004;SDS011;67209;51.698;-0.292;2023-04-28T06:52:21;6.53;;;3.25;;
78004;SDS011;67209;51.698;-0.292;2023-04-28T06:54:48;25.98;;;4.80;;
78004;SDS011;67209;51.698;-0.292;2023-04-28T06:57:14;6.82;;;2.97;;
78004;SDS011;67209;51.698;-0.292;2023-04-28T06:59:40;90.10;;;8.77;;
78004;SDS011;67209;51.698;-0.292;2023-04-28T07:02:08;291.08;;;26.20;;
78004;SDS011;67209;51.698;-0.292;2023-04-28T07:04:35;51.03;;;6.45;;
78004;SDS011;67209;51.698;-0.292;2023-04-28T07:07:01;5.15;;;2.70;;
78004;SDS011;67209;51.698;-0.292;2023-04-28T07:09:31;5.63;;;3.00;;
78004;SDS011;67209;51.698;-0.292;2023-04-28T07:11:57;4.97;;;2.80;;
78004;SDS011;67209;51.698;-0.292;2023-04-28T07:14:23;178.20;;;15.93;;
78004;SDS011;67209;51.698;-0.292;2023-04-28T07:16:49;47.92;;;5.47;;
78004;SDS011;67209;51.698;-0.292;2023-04-28T07:19:15;40.88;;;5.05;;
78004;SDS011;67209;51.698;-0.292;2023-04-28T07:21:41;32.85;;;4.55;;
78004;SDS011;67209;51.698;-0.292;2023-04-28T07:24:07;13.40;;;2.97;;
78004;SDS011;67209;51.698;-0.292;2023-04-28T07:26:33;6.07;;;2.53;;
78004;SDS011;67209;51.698;-0.292;2023-04-28T07:28:59;5.38;;;2.30;;
78004;SDS011;67209;51.698;-0.292;2023-04-28T07:31:26;4.43;;;2.17;;
78004;SDS011;67209;51.698;-0.292;2023-04-28T07:33:53;13.80;;;2.80;;
78004;SDS011;67209;51.698;-0.292;2023-04-28T07:36:19;3.97;;;1.90;;
78004;SDS011;67209;51.698;-0.292;2023-04-28T07:38:45;3.20;;;2.00;;
78004;SDS011;67209;51.698;-0.292;2023-04-28T07:41:11;3.70;;;1.98;;
78004;SDS011;67209;51.698;-0.292;2023-04-28T07:43:37;33.22;;;3.88;;
78004;SDS011;67209;51.698;-0.292;2023-04-28T07:46:03;3.10;;;1.70;;
78004;SDS011;67209;51.698;-0.292;2023-04-28T07:48:29;3.20;;;1.70;;
78004;SDS011;67209;51.698;-0.292;2023-04-28T07:50:56;50.35;;;4.78;;
78004;SDS011;67209;51.698;-0.292;2023-04-28T07:53:22;7.18;;;1.80;;
78004;SDS011;67209;51.698;-0.292;2023-04-28T07:55:48;2.80;;;1.85;;
78004;SDS011;67209;51.698;-0.292;2023-04-28T07:58:14;4.75;;;1.77;;
78004;SDS011;67209;51.698;-0.292;2023-04-28T08:00:40;2.33;;;1.35;;
78004;SDS011;67209;51.698;-0.292;2023-04-28T08:03:06;2.60;;;1.42;;
78004;SDS011;67209;51.698;-0.292;2023-04-28T08:05:32;2.33;;;1.40;;
78004;SDS011;67209;51.698;-0.292;2023-04-28T08:07:58;2.85;;;1.15;;
78004;SDS011;67209;51.698;-0.292;2023-04-28T08:10:24;33.95;;;3.65;;
78004;SDS011;67209;51.698;-0.292;2023-04-28T08:12:50;2.85;;;1.30;;
78004;SDS011;67209;51.698;-0.292;2023-04-28T08:15:17;1.83;;;1.30;;
78004;SDS011;67209;51.698;-0.292;2023-04-28T08:17:43;1.42;;;1.05;;
78004;SDS011;67209;51.698;-0.292;2023-04-28T08:20:09;2.05;;;1.25;;
78004;SDS011;67209;51.698;-0.292;2023-04-28T08:22:35;1.63;;;1.02;;
78004;SDS011;67209;51.698;-0.292;2023-04-28T08:25:01;6.65;;;1.45;;
78004;SDS011;67209;51.698;-0.292;2023-04-28T08:27:28;1.33;;;0.90;;
78004;SDS011;67209;51.698;-0.292;2023-04-28T08:29:54;4.15;;;1.20;;
78004;SDS011;67209;51.698;-0.292;2023-04-28T08:32:20;1.83;;;1.08;;
78004;SDS011;67209;51.698;-0.292;2023-04-28T08:34:46;1.13;;;0.93;;
78004;SDS011;67209;51.698;-0.292;2023-04-28T08:37:11;3.13;;;0.95;;
78004;SDS011;67209;51.698;-0.292;2023-04-28T08:39:38;3.10;;;0.80;;
78004;SDS011;67209;51.698;-0.292;2023-04-28T08:42:04;0.95;;;0.70;;
78004;SDS011;67209;51.698;-0.292;2023-04-28T08:44:35;0.88;;;0.63;;
78004;SDS011;67209;51.698;-0.292;2023-04-28T08:47:03;0.90;;;0.60;;
78004;SDS011;67209;51.698;-0.292;2023-04-28T08:49:31;1.33;;;0.60;;
78004;SDS011;67209;51.698;-0.292;2023-04-28T08:52:00;0.60;;;0.60;;
78004;SDS011;67209;51.698;-0.292;2023-04-28T08:54:27;0.63;;;0.50;;
78004;SDS011;67209;51.698;-0.292;2023-04-28T08:56:55;0.90;;;0.50;;
78004;SDS011;67209;51.698;-0.292;2023-04-28T08:59:21;2.03;;;0.60;;
78004;SDS011;67209;51.698;-0.292;2023-04-28T09:01:48;1.20;;;0.75;;
78004;SDS011;67209;51.698;-0.292;2023-04-28T09:04:18;23.30;;;1.75;;
78004;SDS011;67209;51.698;-0.292;2023-04-28T09:06:44;1.00;;;0.80;;
78004;SDS011;67209;51.698;-0.292;2023-04-28T09:11:49;1.48;;;0.50;;
78004;SDS011;67209;51.698;-0.292;2023-04-28T09:14:15;0.98;;;0.50;;
78004;SDS011;67209;51.698;-0.292;2023-04-28T09:16:41;1.67;;;0.70;;
78004;SDS011;67209;51.698;-0.292;2023-04-28T09:19:07;1.08;;;0.65;;
78004;SDS011;67209;51.698;-0.292;2023-04-28T09:21:44;0.95;;;0.90;;
78004;SDS011;67209;51.698;-0.292;2023-04-28T09:24:11;1.60;;;0.70;;
78004;SDS011;67209;51.698;-0.292;2023-04-28T09:26:50;0.70;;;0.60;;
78004;SDS011;67209;51.698;-0.292;2023-04-28T09:29:16;0.77;;;0.43;;
78004;SDS011;67209;51.698;-0.292;2023-04-28T09:31:42;1.42;;;0.50;;
78004;SDS011;67209;51.698;-0.292;2023-04-28T09:34:08;1.77;;;0.50;;
78004;SDS011;67209;51.698;-0.292;2023-04-28T09:36:36;1.75;;;0.50;;
78004;SDS011;67209;51.698;-0.292;2023-04-28T09:39:02;1.90;;;0.50;;
78004;SDS011;67209;51.698;-0.292;2023-04-28T09:41:41;0.68;;;0.50;;
78004;SDS011;67209;51.698;-0.292;2023-04-28T09:44:11;0.52;;;0.40;;
78004;SDS011;67209;51.698;-0.292;2023-04-28T09:46:37;0.38;;;0.30;;
78004;SDS011;67209;51.698;-0.292;2023-04-28T09:49:04;1.48;;;0.50;;
78004;SDS011;67209;51.698;-0.292;2023-04-28T09:51:30;0.55;;;0.40;;
78004;SDS011;67209;51.698;-0.292;2023-04-28T09:53:58;0.82;;;0.47;;
78004;SDS011;67209;51.698;-0.292;2023-04-28T09:56:26;0.82;;;0.55;;
78004;SDS011;67209;51.698;-0.292;2023-04-28T09:58:52;0.90;;;0.63;;
78004;SDS011;67209;51.698;-0.292;2023-04-28T10:01:18;1.05;;;0.60;;
78004;SDS011;67209;51.698;-0.292;2023-04-28T10:03:45;0.70;;;0.50;;
78004;SDS011;67209;51.698;-0.292;2023-04-28T10:06:11;0.70;;;0.40;;
78004;SDS011;67209;51.698;-0.292;2023-04-28T10:08:37;0.70;;;0.52;;
78004;SDS011;67209;51.698;-0.292;2023-04-28T10:11:04;1.30;;;0.60;;
78004;SDS011;67209;51.698;-0.292;2023-04-28T10:13:30;1.77;;;1.05;;
78004;SDS011;67209;51.698;-0.292;2023-04-28T10:15:57;1.40;;;0.73;;
78004;SDS011;67209;51.698;-0.292;2023-04-28T10:18:23;1.33;;;0.95;;
78004;SDS011;67209;51.698;-0.292;2023-04-28T10:20:52;1.75;;;1.20;;
78004;SDS011;67209;51.698;-0.292;2023-04-28T10:26:02;2.47;;;1.50;;
78004;SDS011;67209;51.698;-0.292;2023-04-28T10:28:28;1.30;;;0.93;;
78004;SDS011;67209;51.698;-0.292;2023-04-28T10:33:36;1.80;;;1.48;;
78004;SDS011;67209;51.698;-0.292;2023-04-28T10:36:02;1.80;;;1.35;;
78004;SDS011;67209;51.698;-0.292;2023-04-28T10:38:29;1.88;;;1.50;;
78004;SDS011;67209;51.698;-0.292;2023-04-28T10:40:55;1.92;;;1.50;;
78004;SDS011;67209;51.698;-0.292;2023-04-28T10:43:36;1.80;;;1.60;;
78004;SDS011;67209;51.698;-0.292;2023-04-28T10:46:04;2.63;;;1.67;;
78004;SDS011;67209;51.698;-0.292;2023-04-28T10:56:06;2.15;;;1.48;;
78004;SDS011;67209;51.698;-0.292;2023-04-28T10:58:32;2.40;;;1.40;;
78004;SDS011;67209;51.698;-0.292;2023-04-28T11:06:22;1.45;;;1.35;;
78004;SDS011;67209;51.698;-0.292;2023-04-28T11:11:23;2.78;;;1.20;;
78004;SDS011;67209;51.698;-0.292;2023-04-28T11:13:50;2.40;;;1.05;;
78004;SDS011;67209;51.698;-0.292;2023-04-28T11:16:17;1.85;;;1.33;;
78004;SDS011;67209;51.698;-0.292;2023-04-28T11:19:01;2.08;;;1.30;;
78004;SDS011;67209;51.698;-0.292;2023-04-28T11:21:28;2.40;;;1.40;;
78004;SDS011;67209;51.698;-0.292;2023-04-28T11:23:55;2.40;;;1.50;;
78004;SDS011;67209;51.698;-0.292;2023-04-28T11:26:22;1.52;;;0.90;;
78004;SDS011;67209;51.698;-0.292;2023-04-28T11:28:51;1.98;;;1.33;;
78004;SDS011;67209;51.698;-0.292;2023-04-28T11:31:17;2.50;;;1.55;;
78004;SDS011;67209;51.698;-0.292;2023-04-28T11:36:26;2.97;;;1.77;;
78004;SDS011;67209;51.698;-0.292;2023-04-28T11:38:53;2.60;;;1.52;;
78004;SDS011;67209;51.698;-0.292;2023-04-28T11:41:20;4.68;;;1.83;;
78004;SDS011;67209;51.698;-0.292;2023-04-28T11:43:46;4.75;;;1.58;;
78004;SDS011;67209;51.698;-0.292;2023-04-28T11:46:16;2.38;;;1.67;;
78004;SDS011;67209;51.698;-0.292;2023-04-28T11:48:42;2.28;;;1.60;;
78004;SDS011;67209;51.698;-0.292;2023-04-28T11:51:08;2.50;;;1.75;;
78004;SDS011;67209;51.698;-0.292;2023-04-28T11:53:44;2.50;;;1.50;;
78004;SDS011;67209;51.698;-0.292;2023-04-28T11:56:10;2.08;;;1.33;;
78004;SDS011;67209;51.698;-0.292;2023-04-28T11:58:37;2.25;;;1.67;;
78004;SDS011;67209;51.698;-0.292;2023-04-28T12:01:10;3.10;;;1.55;;
78004;SDS011;67209;51.698;-0.292;2023-04-28T12:03:46;2.67;;;1.73;;
78004;SDS011;67209;51.698;-0.292;2023-04-28T12:06:18;2.30;;;1.90;;
78004;SDS011;67209;51.698;-0.292;2023-04-28T12:08:44;2.90;;;1.60;;
78004;SDS011;67209;51.698;-0.292;2023-04-28T12:11:11;4.28;;;2.33;;
78004;SDS011;67209;51.698;-0.292;2023-04-28T12:13:37;2.67;;;1.88;;
78004;SDS011;67209;51.698;-0.292;2023-04-28T12:16:06;3.17;;;2.10;;
78004;SDS011;67209;51.698;-0.292;2023-04-28T12:18:33;4.22;;;2.50;;
78004;SDS011;67209;51.698;-0.292;2023-04-28T12:21:00;2.67;;;1.35;;
78004;SDS011;67209;51.698;-0.292;2023-04-28T12:25:58;2.13;;;1.58;;
78004;SDS011;67209;51.698;-0.292;2023-04-28T12:28:37;5.47;;;1.40;;
78004;SDS011;67209;51.698;-0.292;2023-04-28T12:31:05;3.40;;;1.38;;
78004;SDS011;67209;51.698;-0.292;2023-04-28T12:33:32;3.65;;;1.40;;
78004;SDS011;67209;51.698;-0.292;2023-04-28T12:36:01;5.13;;;1.58;;
78004;SDS011;67209;51.698;-0.292;2023-04-28T12:38:28;3.08;;;1.58;;
78004;SDS011;67209;51.698;-0.292;2023-04-28T12:40:54;1.80;;;0.93;;
78004;SDS011;67209;51.698;-0.292;2023-04-28T12:43:21;1.92;;;1.17;;
78004;SDS011;67209;51.698;-0.292;2023-04-28T12:45:51;2.58;;;1.30;;
78004;SDS011;67209;51.698;-0.292;2023-04-28T12:48:17;2.92;;;1.85;;
78004;SDS011;67209;51.698;-0.292;2023-04-28T12:50:43;1.95;;;1.35;;
78004;SDS011;67209;51.698;-0.292;2023-04-28T12:53:10;2.50;;;1.75;;
78004;SDS011;67209;51.698;-0.292;2023-04-28T12:55:36;3.33;;;2.10;;
78004;SDS011;67209;51.698;-0.292;2023-04-28T12:58:04;3.45;;;1.80;;
78004;SDS011;67209;51.698;-0.292;2023-04-28T13:00:30;2.08;;;1.15;;
78004;SDS011;67209;51.698;-0.292;2023-04-28T13:02:56;2.90;;;1.58;;
78004;SDS011;67209;51.698;-0.292;2023-04-28T13:05:22;3.67;;;1.98;;
78004;SDS011;67209;51.698;-0.292;2023-04-28T13:07:48;4.43;;;1.60;;
78004;SDS011;67209;51.698;-0.292;2023-04-28T13:10:15;3.13;;;1.60;;
78004;SDS011;67209;51.698;-0.292;2023-04-28T13:12:42;3.28;;;1.80;;
78004;SDS011;67209;51.698;-0.292;2023-04-28T13:15:08;3.53;;;2.08;;
78004;SDS011;67209;51.698;-0.292;2023-04-28T13:17:34;2.60;;;1.58;;
78004;SDS011;67209;51.698;-0.292;2023-04-28T13:20:00;2.83;;;2.22;;
78004;SDS011;67209;51.698;-0.292;2023-04-28T13:22:27;3.72;;;1.85;;
78004;SDS011;67209;51.698;-0.292;2023-04-28T13:24:53;3.95;;;1.75;;
78004;SDS011;67209;51.698;-0.292;2023-04-28T13:27:20;4.15;;;2.08;;
78004;SDS011;67209;51.698;-0.292;2023-04-28T13:29:46;3.97;;;1.95;;
78004;SDS011;67209;51.698;-0.292;2023-04-28T13:32:12;3.28;;;1.65;;
78004;SDS011;67209;51.698;-0.292;2023-04-28T13:34:38;2.17;;;1.60;;
78004;SDS011;67209;51.698;-0.292;2023-04-28T13:37:04;2.67;;;1.23;;
78004;SDS011;67209;51.698;-0.292;2023-04-28T13:39:30;3.20;;;1.45;;
78004;SDS011;67209;51.698;-0.292;2023-04-28T13:41:57;2.78;;;1.67;;
78004;SDS011;67209;51.698;-0.292;2023-04-28T13:44:24;3.17;;;1.85;;
78004;SDS011;67209;51.698;-0.292;2023-04-28T13:46:50;4.90;;;1.90;;
78004;SDS011;67209;51.698;-0.292;2023-04-28T13:49:17;3.63;;;1.83;;
78004;SDS011;67209;51.698;-0.292;2023-04-28T13:51:44;2.50;;;1.35;;
78004;SDS011;67209;51.698;-0.292;2023-04-28T13:54:10;5.25;;;2.67;;
78004;SDS011;67209;51.698;-0.292;2023-04-28T13:56:36;4.07;;;2.13;;
78004;SDS011;67209;51.698;-0.292;2023-04-28T13:59:02;5.13;;;2.78;;
78004;SDS011;67209;51.698;-0.292;2023-04-28T14:01:28;5.35;;;2.80;;
78004;SDS011;67209;51.698;-0.292;2023-04-28T14:03:54;4.88;;;2.83;;
78004;SDS011;67209;51.698;-0.292;2023-04-28T14:06:20;3.42;;;1.88;;
78004;SDS011;67209;51.698;-0.292;2023-04-28T14:08:46;5.18;;;2.70;;
78004;SDS011;67209;51.698;-0.292;2023-04-28T14:11:12;4.57;;;2.47;;
78004;SDS011;67209;51.698;-0.292;2023-04-28T14:13:38;4.15;;;2.25;;
78004;SDS011;67209;51.698;-0.292;2023-04-28T14:16:05;3.83;;;1.95;;
78004;SDS011;67209;51.698;-0.292;2023-04-28T14:18:31;3.88;;;1.70;;
78004;SDS011;67209;51.698;-0.292;2023-04-28T14:20:58;3.20;;;1.95;;
78004;SDS011;67209;51.698;-0.292;2023-04-28T14:23:26;4.40;;;2.20;;
78004;SDS011;67209;51.698;-0.292;2023-04-28T14:25:52;2.85;;;1.88;;
78004;SDS011;67209;51.698;-0.292;2023-04-28T14:28:20;2.90;;;1.63;;
78004;SDS011;67209;51.698;-0.292;2023-04-28T14:30:46;4.25;;;2.20;;
78004;SDS011;67209;51.698;-0.292;2023-04-28T14:33:13;3.95;;;2.03;;
78004;SDS011;67209;51.698;-0.292;2023-04-28T14:35:39;2.45;;;1.67;;
78004;SDS011;67209;51.698;-0.292;2023-04-28T14:38:06;3.85;;;1.60;;
78004;SDS011;67209;51.698;-0.292;2023-04-28T14:40:31;3.22;;;1.90;;
78004;SDS011;67209;51.698;-0.292;2023-04-28T14:42:57;3.63;;;2.20;;
78004;SDS011;67209;51.698;-0.292;2023-04-28T14:45:23;4.20;;;2.10;;
78004;SDS011;67209;51.698;-0.292;2023-04-28T14:47:50;4.53;;;2.30;;
78004;SDS011;67209;51.698;-0.292;2023-04-28T14:50:16;3.47;;;2.28;;
78004;SDS011;67209;51.698;-0.292;2023-04-28T14:52:43;5.72;;;2.92;;